Time;durP1;ratioP1;P1;durP2;ratioP2;P2;SDS_P1;SDS_P2;PMS_P1;PMS_P2;Temp;Humidity;BMP_temperature;BMP_pressure;BME280_temperature;BME280_humidity;BME280_pressure;Samples;Min_cycle;Max_cycle;Signal;HPM_P1;HPM_P2
2021/03/07 00:00:22;;;;;;;1.70;1.23;;;4.50;99.90;;;;;;5053754;28;20268;-76
2021/03/07 00:02:48;;;;;;;0.88;0.73;;;4.50;99.90;;;;;;5054020;28;20147;-76
2021/03/07 00:05:15;;;;;;;0.45;0.45;;;4.40;99.90;;;;;;5053796;28;20167;-76
2021/03/07 00:07:42;;;;;;;1.08;1.08;;;4.50;99.90;;;;;;5053962;28;20195;-76
2021/03/07 00:10:10;;;;;;;4.75;1.85;;;4.50;99.90;;;;;;5053904;28;20516;-76
2021/03/07 00:12:36;;;;;;;0.82;0.82;;;4.50;99.90;;;;;;5053905;28;20190;-76
2021/03/07 00:15:07;;;;;;;1.00;0.95;;;4.50;99.90;;;;;;5053742;28;20174;-76
2021/03/07 00:17:33;;;;;;;1.20;1.05;;;4.60;99.90;;;;;;5053611;28;20183;-76
2021/03/07 00:19:59;;;;;;;6.32;1.55;;;4.60;99.90;;;;;;5053505;28;20209;-77
2021/03/07 00:22:25;;;;;;;0.47;0.47;;;4.50;99.90;;;;;;5053036;28;20246;-76
2021/03/07 00:24:51;;;;;;;0.70;0.70;;;4.50;99.90;;;;;;5053824;28;20163;-76
2021/03/07 00:27:17;;;;;;;3.60;2.20;;;4.40;99.90;;;;;;5053420;28;20737;-76
2021/03/07 00:29:43;;;;;;;1.13;1.13;;;4.40;99.90;;;;;;5053466;28;20160;-77
2021/03/07 00:32:08;;;;;;;2.15;2.05;;;4.30;99.90;;;;;;5035767;28;20194;-76
2021/03/07 00:34:34;;;;;;;0.88;0.80;;;4.30;99.90;;;;;;5053493;28;20185;-77
2021/03/07 00:37:00;;;;;;;0.95;0.95;;;4.10;99.90;;;;;;5053306;28;20671;-77
2021/03/07 00:39:25;;;;;;;29.95;1.95;;;4.20;99.90;;;;;;5053157;28;20199;-76
2021/03/07 00:44:17;;;;;;;1.52;1.50;;;4.10;99.90;;;;;;5053368;28;20528;-76
2021/03/07 00:46:44;;;;;;;0.50;0.50;;;4.00;99.90;;;;;;5053199;28;20187;-76
2021/03/07 00:49:11;;;;;;;1.53;1.27;;;4.00;99.90;;;;;;5053203;28;20159;-76
2021/03/07 00:51:37;;;;;;;1.15;1.13;;;4.10;99.90;;;;;;5053143;28;20258;-76
2021/03/07 00:54:03;;;;;;;0.93;0.93;;;4.00;99.90;;;;;;5053031;28;20577;-76
2021/03/07 00:56:29;;;;;;;0.52;0.52;;;4.10;99.90;;;;;;5052870;28;20191;-76
2021/03/07 00:58:55;;;;;;;1.05;1.05;;;4.00;99.90;;;;;;5052816;28;20215;-76
2021/03/07 01:01:21;;;;;;;0.60;0.60;;;4.00;99.90;;;;;;5053104;28;20178;-76
2021/03/07 01:03:46;;;;;;;0.57;0.57;;;3.80;99.90;;;;;;5052790;28;20182;-76
2021/03/07 01:06:12;;;;;;;0.73;0.73;;;4.00;99.90;;;;;;5053004;28;20195;-76
2021/03/07 01:08:38;;;;;;;3.53;1.42;;;3.80;99.90;;;;;;5053315;28;20171;-75
2021/03/07 01:11:04;;;;;;;1.13;1.13;;;3.80;99.90;;;;;;5035100;28;20201;-75
2021/03/07 01:13:30;;;;;;;0.50;0.50;;;3.80;99.90;;;;;;5053037;28;20171;-77
2021/03/07 01:15:56;;;;;;;1.00;0.90;;;3.70;99.90;;;;;;5055934;28;20254;-76
2021/03/07 01:18:21;;;;;;;1.40;0.55;;;3.70;99.90;;;;;;5055115;28;20235;-76
2021/03/07 01:20:47;;;;;;;0.97;0.97;;;3.50;99.90;;;;;;5070591;28;20263;-77
2021/03/07 01:23:15;;;;;;;0.93;0.93;;;3.50;99.90;;;;;;5063645;28;20619;-76
2021/03/07 01:25:41;;;;;;;3.67;1.67;;;3.40;99.90;;;;;;5052992;28;20570;-77
2021/03/07 01:28:08;;;;;;;0.57;0.57;;;3.50;99.90;;;;;;5052660;28;20191;-76
2021/03/07 01:30:36;;;;;;;1.13;1.13;;;3.60;99.90;;;;;;5052811;28;20179;-76
2021/03/07 01:33:03;;;;;;;2.00;1.83;;;3.70;99.90;;;;;;5035681;28;20163;-76
2021/03/07 01:35:28;;;;;;;0.67;0.67;;;3.60;99.90;;;;;;5056691;28;20682;-76
2021/03/07 01:37:54;;;;;;;0.67;0.67;;;3.60;99.90;;;;;;5056974;28;20281;-76
2021/03/07 01:40:27;;;;;;;0.80;0.80;;;3.50;99.90;;;;;;5056570;28;20217;-77
2021/03/07 01:42:54;;;;;;;1.80;1.70;;;3.40;99.90;;;;;;5056686;28;20641;-76
2021/03/07 01:45:21;;;;;;;1.38;1.30;;;3.30;99.90;;;;;;5056638;28;20214;-76
2021/03/07 01:47:50;;;;;;;1.88;1.58;;;3.30;99.90;;;;;;5056406;28;20692;-76
2021/03/07 01:50:18;;;;;;;0.40;0.40;;;3.40;99.90;;;;;;5056684;28;20614;-76
2021/03/07 01:52:44;;;;;;;1.00;1.00;;;3.20;99.90;;;;;;5056622;28;20179;-76
2021/03/07 01:55:10;;;;;;;1.40;1.20;;;3.20;99.90;;;;;;5056395;28;20194;-76
2021/03/07 01:57:39;;;;;;;0.80;0.80;;;3.30;99.90;;;;;;5055845;28;20221;-76
2021/03/07 02:00:07;;;;;;;6.70;1.33;;;3.30;99.90;;;;;;5056095;28;20217;-76
2021/03/07 02:02:33;;;;;;;0.63;0.63;;;3.50;99.90;;;;;;5056169;28;20207;-76
2021/03/07 02:04:59;;;;;;;0.80;0.80;;;3.40;99.90;;;;;;5056106;28;20167;-77
2021/03/07 02:07:24;;;;;;;0.60;0.60;;;3.40;99.90;;;;;;5056079;28;20206;-76
2021/03/07 02:09:50;;;;;;;0.57;0.57;;;3.30;99.90;;;;;;5056006;28;20180;-76
2021/03/07 02:12:20;;;;;;;1.47;0.80;;;3.20;99.90;;;;;;5056225;28;20164;-76
2021/03/07 02:14:50;;;;;;;1.10;0.83;;;3.30;99.90;;;;;;5055929;28;20683;-76
2021/03/07 02:17:16;;;;;;;6.40;3.60;;;3.00;99.90;;;;;;5055802;28;20732;-76
2021/03/07 02:19:41;;;;;;;0.73;0.73;;;2.90;99.90;;;;;;5055836;28;20290;-76
2021/03/07 02:22:14;;;;;;;1.33;0.93;;;2.80;99.90;;;;;;5055860;28;20162;-76
2021/03/07 02:24:40;;;;;;;0.40;0.40;;;2.90;99.90;;;;;;5055417;28;20175;-76
2021/03/07 02:27:06;;;;;;;1.17;1.17;;;3.00;99.90;;;;;;5055660;28;20183;-76
2021/03/07 02:29:32;;;;;;;6.33;2.83;;;3.00;99.90;;;;;;5055810;28;20170;-76
2021/03/07 02:32:04;;;;;;;0.60;0.60;;;3.20;99.90;;;;;;5055636;28;20158;-76
2021/03/07 02:34:40;;;;;;;0.75;0.75;;;3.10;99.90;;;;;;5037770;28;20175;-76
2021/03/07 02:37:08;;;;;;;1.00;1.00;;;3.20;99.90;;;;;;5055579;28;20186;-76
2021/03/07 02:39:37;;;;;;;1.87;1.80;;;3.20;99.90;;;;;;5055598;28;20291;-76
2021/03/07 02:42:10;;;;;;;0.47;0.47;;;2.90;99.90;;;;;;5055523;28;20163;-76
2021/03/07 02:44:38;;;;;;;0.83;0.83;;;2.60;99.90;;;;;;5054337;28;20599;-76
2021/03/07 02:47:05;;;;;;;0.63;0.63;;;2.50;99.90;;;;;;5055550;28;20278;-76
2021/03/07 02:49:33;;;;;;;1.43;1.33;;;2.40;99.90;;;;;;5055243;28;20160;-76
2021/03/07 02:52:03;;;;;;;1.00;0.83;;;2.50;99.90;;;;;;5055272;28;20156;-76
2021/03/07 02:54:30;;;;;;;1.43;1.43;;;2.60;99.90;;;;;;5055115;28;20210;-76
2021/03/07 02:56:57;;;;;;;2.40;1.57;;;2.70;99.90;;;;;;5055103;28;20269;-77
2021/03/07 02:59:26;;;;;;;0.50;0.50;;;2.40;99.90;;;;;;5054843;28;20411;-77
2021/03/07 03:01:56;;;;;;;0.90;0.90;;;2.40;99.90;;;;;;5055167;28;20162;-76
2021/03/07 03:04:22;;;;;;;1.23;1.13;;;2.60;99.90;;;;;;5054989;28;20222;-76
2021/03/07 03:06:49;;;;;;;0.87;0.87;;;2.60;99.90;;;;;;5054829;28;20187;-76
2021/03/07 03:09:16;;;;;;;1.10;1.10;;;2.30;99.90;;;;;;5055278;28;20677;-76
2021/03/07 03:11:42;;;;;;;0.87;0.87;;;2.30;99.90;;;;;;5054846;28;20199;-76
2021/03/07 03:14:15;;;;;;;0.77;0.77;;;2.40;99.90;;;;;;5054842;28;20206;-76
2021/03/07 03:16:52;;;;;;;0.57;0.57;;;2.50;99.90;;;;;;5054693;28;20273;-76
2021/03/07 03:19:20;;;;;;;2.70;1.87;;;2.50;99.90;;;;;;5054695;28;20707;-76
2021/03/07 03:21:46;;;;;;;1.37;1.27;;;2.50;99.90;;;;;;5055056;28;20170;-76
2021/03/07 03:24:12;;;;;;;3.17;1.10;;;2.60;99.90;;;;;;5054753;28;20524;-76
2021/03/07 03:26:39;;;;;;;3.30;3.10;;;2.50;99.90;;;;;;5054234;28;20696;-76
2021/03/07 03:29:06;;;;;;;0.97;0.97;;;2.50;99.90;;;;;;5054626;28;20152;-76
2021/03/07 03:31:33;;;;;;;1.00;1.00;;;2.60;99.90;;;;;;5054809;28;20172;-77
2021/03/07 03:33:59;;;;;;;1.00;1.00;;;2.90;99.90;;;;;;5055052;28;20163;-77
2021/03/07 03:36:25;;;;;;;1.33;1.33;;;2.80;99.90;;;;;;5054845;28;20187;-77
2021/03/07 03:38:53;;;;;;;0.43;0.43;;;2.50;99.90;;;;;;5055136;28;20171;-76
2021/03/07 03:41:21;;;;;;;1.17;1.17;;;2.40;99.90;;;;;;5054758;28;20579;-77
2021/03/07 03:43:49;;;;;;;0.43;0.43;;;2.20;99.90;;;;;;5054677;28;20163;-77
2021/03/07 03:46:17;;;;;;;1.63;1.53;;;2.20;99.90;;;;;;5054819;28;20187;-76
2021/03/07 03:48:47;;;;;;;1.67;1.57;;;2.10;99.90;;;;;;5054820;28;20156;-76
2021/03/07 03:51:14;;;;;;;1.43;1.37;;;2.00;99.90;;;;;;5056447;28;20630;-76
2021/03/07 03:53:41;;;;;;;2.63;1.40;;;2.10;99.90;;;;;;5075887;28;20729;-75
2021/03/07 03:56:08;;;;;;;0.60;0.60;;;2.30;99.90;;;;;;5072553;28;20285;-76
2021/03/07 03:58:40;;;;;;;0.93;0.93;;;2.30;99.90;;;;;;5066799;28;20233;-76
2021/03/07 04:01:07;;;;;;;0.90;0.90;;;2.10;99.90;;;;;;5054927;28;20210;-76
2021/03/07 04:03:34;;;;;;;1.20;1.20;;;2.00;99.90;;;;;;5054440;28;20640;-77
2021/03/07 04:06:00;;;;;;;0.87;0.87;;;2.20;99.90;;;;;;5054393;28;20163;-76
2021/03/07 04:08:26;;;;;;;1.07;1.07;;;2.20;99.90;;;;;;5054800;28;20183;-76
2021/03/07 04:10:52;;;;;;;0.83;0.83;;;2.20;99.90;;;;;;5054356;28;20168;-76
2021/03/07 04:13:25;;;;;;;1.87;1.77;;;2.20;99.90;;;;;;5054241;28;20170;-76
2021/03/07 04:15:53;;;;;;;1.33;1.23;;;2.30;99.90;;;;;;5054220;28;20152;-76
2021/03/07 04:18:22;;;;;;;1.30;1.20;;;2.20;99.90;;;;;;5036359;28;20309;-77
2021/03/07 04:20:48;;;;;;;1.83;1.40;;;2.30;99.90;;;;;;5053917;28;20199;-76
2021/03/07 04:23:14;;;;;;;0.53;0.53;;;2.10;99.90;;;;;;5054054;28;20270;-76
2021/03/07 04:25:40;;;;;;;0.50;0.50;;;2.30;99.90;;;;;;5053895;28;20193;-77
2021/03/07 04:28:07;;;;;;;0.60;0.60;;;2.40;99.90;;;;;;5053803;28;20256;-76
2021/03/07 04:30:33;;;;;;;1.67;1.60;;;2.50;99.90;;;;;;5053897;28;20244;-77
2021/03/07 04:33:00;;;;;;;0.50;0.50;;;2.50;99.90;;;;;;5053881;28;20195;-77
2021/03/07 04:35:27;;;;;;;1.27;1.23;;;2.50;99.90;;;;;;5053997;28;20215;-77
2021/03/07 04:37:56;;;;;;;1.47;1.43;;;2.50;99.90;;;;;;5054346;28;20190;-77
2021/03/07 04:40:24;;;;;;;0.80;0.80;;;2.40;99.90;;;;;;5053924;28;20253;-76
2021/03/07 04:42:50;;;;;;;0.50;0.50;;;2.30;99.90;;;;;;5053877;28;20219;-77
2021/03/07 04:45:16;;;;;;;1.30;1.30;;;2.20;99.90;;;;;;5053654;28;20189;-76
2021/03/07 04:47:42;;;;;;;1.23;1.13;;;2.10;99.90;;;;;;5053807;28;20183;-76
2021/03/07 04:50:09;;;;;;;1.93;1.83;;;2.10;99.90;;;;;;5053645;28;20167;-77
2021/03/07 04:52:35;;;;;;;1.53;1.13;;;2.00;99.90;;;;;;5053890;28;20191;-76
2021/03/07 04:55:01;;;;;;;0.83;0.83;;;1.90;99.90;;;;;;5053919;28;20166;-76
2021/03/07 04:57:26;;;;;;;1.43;1.33;;;1.70;99.90;;;;;;5053729;28;20191;-77
2021/03/07 04:59:52;;;;;;;0.30;0.30;;;1.80;99.90;;;;;;5053631;28;20560;-77
2021/03/07 05:02:17;;;;;;;1.87;1.77;;;1.80;99.90;;;;;;5035735;28;20159;-77
2021/03/07 05:04:43;;;;;;;19.83;7.13;;;2.00;99.90;;;;;;5053444;28;20494;-76
2021/03/07 05:07:08;;;;;;;1.00;1.00;;;2.00;99.90;;;;;;5053715;28;20198;-77
2021/03/07 05:09:34;;;;;;;1.97;1.87;;;2.00;99.90;;;;;;5059965;28;20163;-77
2021/03/07 05:11:59;;;;;;;0.70;0.70;;;1.90;99.90;;;;;;5060193;28;20171;-77
2021/03/07 05:14:25;;;;;;;0.77;0.77;;;2.00;99.90;;;;;;5060090;28;20167;-77
2021/03/07 05:16:51;;;;;;;0.47;0.47;;;2.10;99.90;;;;;;5060216;28;20254;-77
2021/03/07 05:19:16;;;;;;;1.33;1.00;;;2.00;99.90;;;;;;5060073;28;20533;-76
2021/03/07 05:21:42;;;;;;;0.73;0.73;;;1.80;99.90;;;;;;5059991;28;20226;-76
2021/03/07 05:24:08;;;;;;;0.90;0.90;;;1.60;99.90;;;;;;5060056;28;20713;-77
2021/03/07 05:26:33;;;;;;;3.13;1.50;;;1.60;99.90;;;;;;5042114;28;20195;-76
2021/03/07 05:28:59;;;;;;;0.87;0.83;;;1.70;99.90;;;;;;5060145;28;20240;-76
2021/03/07 05:31:24;;;;;;;2.97;1.20;;;1.70;99.90;;;;;;5060057;28;20533;-76
2021/03/07 05:33:50;;;;;;;3.93;0.93;;;1.50;99.90;;;;;;5059760;28;20167;-77
2021/03/07 05:36:17;;;;;;;0.77;0.63;;;1.40;99.90;;;;;;5041952;28;20701;-77
2021/03/07 05:38:42;;;;;;;0.83;0.83;;;1.60;99.90;;;;;;5060451;28;20509;-76
2021/03/07 05:41:11;;;;;;;1.60;1.50;;;1.80;99.90;;;;;;5059616;28;20203;-76
2021/03/07 05:43:38;;;;;;;0.30;0.30;;;2.00;99.90;;;;;;5059973;28;20163;-77
2021/03/07 05:46:03;;;;;;;0.77;0.77;;;2.10;99.90;;;;;;5059907;28;20195;-76
2021/03/07 05:48:30;;;;;;;1.13;0.90;;;2.10;99.90;;;;;;5059653;28;20159;-77
2021/03/07 05:50:56;;;;;;;0.80;0.80;;;2.30;99.90;;;;;;5059822;28;20171;-77
2021/03/07 05:53:23;;;;;;;1.23;1.23;;;2.40;99.90;;;;;;5059837;28;20171;-76
2021/03/07 05:55:49;;;;;;;12.93;2.73;;;2.40;99.90;;;;;;5059840;28;20185;-76
2021/03/07 05:58:16;;;;;;;2.50;1.70;;;2.40;99.90;;;;;;5059792;28;20241;-77
2021/03/07 06:00:42;;;;;;;0.73;0.73;;;2.20;99.90;;;;;;5059500;28;20669;-76
2021/03/07 06:03:08;;;;;;;1.60;1.60;;;2.30;99.90;;;;;;5059550;28;20651;-76
2021/03/07 06:05:34;;;;;;;1.53;1.43;;;2.40;99.90;;;;;;5059584;28;20163;-76
2021/03/07 06:08:00;;;;;;;0.73;0.73;;;2.50;99.90;;;;;;5059694;28;20186;-76
2021/03/07 06:10:27;;;;;;;0.97;0.97;;;2.60;99.90;;;;;;5059859;28;20543;-76
2021/03/07 06:13:02;;;;;;;1.57;1.47;;;2.50;99.90;;;;;;5059710;28;20153;-76
2021/03/07 06:15:29;;;;;;;0.40;0.40;;;2.30;99.90;;;;;;5059897;28;20479;-77
2021/03/07 06:17:55;;;;;;;1.13;1.13;;;2.30;99.90;;;;;;5059385;28;20187;-76
2021/03/07 06:20:25;;;;;;;0.97;0.97;;;2.30;99.90;;;;;;5057215;28;20260;-76
2021/03/07 06:23:01;;;;;;;1.03;1.03;;;2.40;99.90;;;;;;5056808;28;20202;-76
2021/03/07 06:25:27;;;;;;;2.20;2.10;;;2.50;99.90;;;;;;5056854;28;20166;-77
2021/03/07 06:27:53;;;;;;;1.57;1.57;;;2.60;99.90;;;;;;5073745;28;20187;-76
2021/03/07 06:30:23;;;;;;;0.80;0.80;;;2.40;99.90;;;;;;5073566;28;20155;-77
2021/03/07 06:32:55;;;;;;;1.70;1.60;;;2.10;99.90;;;;;;5068785;28;20190;-76
2021/03/07 06:35:25;;;;;;;0.67;0.67;;;1.70;99.90;;;;;;5058693;28;20155;-77
2021/03/07 06:37:57;;;;;;;0.70;0.70;;;1.60;99.90;;;;;;5056594;28;20195;-76
2021/03/07 06:40:27;;;;;;;1.27;1.23;;;1.70;99.90;;;;;;5056181;28;20306;-76
2021/03/07 06:42:54;;;;;;;2.73;1.30;;;1.70;99.90;;;;;;5056082;28;20156;-77
2021/03/07 06:45:20;;;;;;;1.47;1.37;;;1.80;99.90;;;;;;5056160;28;20252;-76
2021/03/07 06:47:56;;;;;;;6.60;2.63;;;1.90;99.90;;;;;;5055870;28;20223;-77
2021/03/07 06:50:22;;;;;;;0.40;0.40;;;2.10;99.90;;;;;;5038039;28;20534;-77
2021/03/07 06:52:53;;;;;;;0.80;0.80;;;2.20;99.90;;;;;;5056059;28;20155;-77
2021/03/07 06:55:21;;;;;;;0.50;0.50;;;2.30;99.90;;;;;;5056377;28;20171;-76
2021/03/07 06:57:47;;;;;;;1.37;1.37;;;2.50;99.90;;;;;;5055730;28;20576;-77
2021/03/07 07:00:14;;;;;;;1.57;1.53;;;2.60;99.90;;;;;;5055899;28;20195;-76
2021/03/07 07:02:39;;;;;;;1.07;1.07;;;2.60;99.90;;;;;;5055903;28;20162;-76
2021/03/07 07:05:06;;;;;;;0.70;0.70;;;2.60;99.90;;;;;;5055651;28;20254;-76
2021/03/07 07:07:31;;;;;;;1.10;1.10;;;2.60;99.90;;;;;;5055532;28;20195;-76
2021/03/07 07:10:00;;;;;;;1.10;1.10;;;2.80;99.90;;;;;;5056173;28;20182;-76
2021/03/07 07:12:28;;;;;;;0.90;0.90;;;2.80;99.90;;;;;;5056738;28;20174;-76
2021/03/07 07:15:10;;;;;;;1.23;1.23;;;2.80;99.90;;;;;;5056401;28;20189;-77
2021/03/07 07:17:36;;;;;;;1.50;1.40;;;2.60;99.90;;;;;;5055856;28;20302;-76
2021/03/07 07:20:07;;;;;;;0.40;0.40;;;2.70;99.90;;;;;;5038033;28;20207;-77
2021/03/07 07:22:33;;;;;;;1.50;1.47;;;2.70;99.90;;;;;;5055935;28;20183;-77
2021/03/07 07:24:59;;;;;;;2.07;1.77;;;2.70;99.90;;;;;;5055784;28;20171;-77
2021/03/07 07:27:24;;;;;;;1.30;1.30;;;2.80;99.90;;;;;;5055793;28;20187;-77
2021/03/07 07:29:50;;;;;;;0.50;0.50;;;2.80;99.90;;;;;;5054480;28;20707;-77
2021/03/07 07:32:23;;;;;;;2.60;2.03;;;2.90;99.90;;;;;;5054087;28;20258;-75
2021/03/07 07:34:53;;;;;;;6.67;2.70;;;2.80;99.90;;;;;;5054842;28;20175;-74
2021/03/07 07:37:40;;;;;;;1.87;1.27;;;2.90;99.90;;;;;;5055182;28;20652;-77
2021/03/07 07:40:07;;;;;;;0.70;0.70;;;2.70;99.90;;;;;;5056355;28;20571;-76
2021/03/07 07:42:34;;;;;;;0.87;0.87;;;2.60;99.90;;;;;;5064442;28;20163;-75
2021/03/07 07:45:18;;;;;;;0.43;0.43;;;2.60;99.90;;;;;;5061331;28;20178;-74
2021/03/07 07:47:48;;;;;;;0.47;0.47;;;2.80;99.90;;;;;;5059340;28;20186;-76
2021/03/07 07:50:29;;;;;;;0.77;0.77;;;2.90;99.90;;;;;;5044706;28;20185;-78
2021/03/07 07:52:56;;;;;;;0.80;0.80;;;2.80;99.90;;;;;;5060305;28;20174;-78
2021/03/07 07:55:40;;;;;;;0.60;0.60;;;2.90;99.90;;;;;;5061060;28;20172;-81
2021/03/07 07:58:06;;;;;;;0.90;0.90;;;2.90;99.90;;;;;;5061058;28;20233;-81
2021/03/07 08:00:51;;;;;;;0.93;0.87;;;2.80;99.90;;;;;;5046319;28;20202;-79
2021/03/07 08:03:44;;;;;;;1.30;1.20;;;3.00;99.90;;;;;;5063652;28;20528;-76
2021/03/07 08:06:11;;;;;;;2.55;2.30;;;3.30;99.90;;;;;;5059076;28;20264;-76
2021/03/07 08:08:39;;;;;;;0.80;0.80;;;3.30;99.90;;;;;;5054738;28;20490;-76
2021/03/07 08:11:06;;;;;;;1.47;1.47;;;3.60;99.90;;;;;;5053610;28;20183;-76
2021/03/07 08:13:34;;;;;;;0.75;0.75;;;3.60;99.90;;;;;;5054065;28;20171;-76
2021/03/07 08:16:01;;;;;;;1.55;1.38;;;3.70;99.90;;;;;;5053938;28;20227;-76
2021/03/07 08:18:51;;;;;;;1.52;1.30;;;3.70;99.90;;;;;;5053629;28;20170;-76
2021/03/07 08:21:19;;;;;;;1.93;1.27;;;3.60;99.90;;;;;;5053678;28;20203;-75
2021/03/07 08:23:56;;;;;;;1.43;1.17;;;3.60;99.90;;;;;;5035733;28;20556;-76
2021/03/07 08:26:36;;;;;;;2.50;2.30;;;3.40;99.90;;;;;;5053733;28;20190;-76
2021/03/07 08:29:02;;;;;;;1.70;1.60;;;3.50;99.90;;;;;;5054020;28;20151;-75
2021/03/07 08:31:31;;;;;;;1.23;1.13;;;3.70;99.90;;;;;;5053480;28;20182;-76
2021/03/07 08:34:19;;;;;;;2.20;1.10;;;3.90;99.90;;;;;;5054940;28;20163;-74
2021/03/07 08:36:58;;;;;;;1.17;1.17;;;3.80;99.90;;;;;;5053439;28;20187;-75
2021/03/07 08:39:23;;;;;;;0.67;0.67;;;3.70;99.90;;;;;;5053897;28;20253;-75
2021/03/07 08:41:49;;;;;;;1.00;1.00;;;4.00;99.90;;;;;;5053157;28;20615;-76
2021/03/07 08:44:16;;;;;;;1.83;1.73;;;4.00;99.90;;;;;;5054416;28;20179;-77
2021/03/07 08:46:41;;;;;;;1.43;1.43;;;4.10;99.90;;;;;;5056754;28;20203;-76
2021/03/07 08:49:18;;;;;;;1.40;1.30;;;4.00;99.90;;;;;;5053176;28;20199;-76
2021/03/07 08:51:50;;;;;;;0.43;0.43;;;4.10;99.90;;;;;;5053979;28;20218;-77
2021/03/07 08:54:22;;;;;;;1.10;1.00;;;4.10;99.90;;;;;;5054448;28;20175;-77
2021/03/07 08:56:49;;;;;;;1.65;1.55;;;4.20;99.90;;;;;;5053131;28;20225;-76
2021/03/07 08:59:16;;;;;;;0.75;0.75;;;4.10;99.90;;;;;;5052812;28;20682;-76
2021/03/07 09:01:42;;;;;;;1.50;1.38;;;4.10;99.90;;;;;;5053137;28;20244;-76
2021/03/07 09:04:11;;;;;;;0.85;0.85;;;4.10;99.90;;;;;;5065172;28;20324;-75
2021/03/07 09:06:43;;;;;;;1.05;1.05;;;4.30;99.90;;;;;;5064475;28;20233;-76
2021/03/07 09:09:18;;;;;;;3.42;2.42;;;4.50;99.90;;;;;;5058047;28;20155;-76
2021/03/07 09:12:17;;;;;;;1.30;1.20;;;4.60;99.90;;;;;;5035859;28;20162;-76
2021/03/07 09:14:42;;;;;;;0.68;0.68;;;4.60;99.90;;;;;;5041506;28;20182;-76
2021/03/07 09:17:16;;;;;;;0.65;0.65;;;4.50;99.90;;;;;;5052904;28;20195;-75
2021/03/07 09:19:42;;;;;;;0.93;0.93;;;4.50;99.90;;;;;;5052805;28;20193;-76
2021/03/07 09:22:22;;;;;;;0.82;0.82;;;4.70;99.90;;;;;;5052763;28;20531;-76
2021/03/07 09:24:56;;;;;;;15.77;2.65;;;4.80;99.90;;;;;;5035105;28;20268;-76
2021/03/07 09:27:25;;;;;;;2.53;2.42;;;4.90;99.90;;;;;;5052703;28;20182;-76
2021/03/07 09:30:04;;;;;;;1.45;1.35;;;5.00;99.90;;;;;;5052971;28;20171;-76
2021/03/07 09:32:40;;;;;;;1.20;1.20;;;4.90;99.90;;;;;;5053160;28;20166;-76
2021/03/07 09:35:22;;;;;;;4.63;1.77;;;4.80;99.90;;;;;;5052551;28;20163;-75
2021/03/07 09:38:15;;;;;;;1.75;1.30;;;5.00;99.90;;;;;;5052799;28;20198;-75
2021/03/07 09:40:44;;;;;;;0.70;0.70;;;5.20;99.90;;;;;;5052415;28;20559;-76
2021/03/07 09:43:15;;;;;;;9.07;1.95;;;5.10;99.90;;;;;;5052570;28;20173;-76
2021/03/07 09:45:47;;;;;;;9.48;2.88;;;5.10;99.90;;;;;;5052582;28;20167;-76
2021/03/07 09:48:14;;;;;;;0.50;0.50;;;5.10;99.90;;;;;;5052538;28;20178;-75
2021/03/07 09:50:41;;;;;;;1.88;1.77;;;4.90;99.90;;;;;;5052397;28;20167;-75
2021/03/07 09:53:07;;;;;;;0.40;0.40;;;5.00;99.90;;;;;;5052408;28;20202;-76
2021/03/07 09:55:35;;;;;;;0.52;0.52;;;5.10;99.90;;;;;;5055594;28;20187;-75
2021/03/07 09:58:02;;;;;;;0.55;0.55;;;5.30;99.90;;;;;;5055968;28;20250;-76
2021/03/07 10:00:29;;;;;;;1.08;1.08;;;5.40;99.90;;;;;;5056126;28;20210;-76
2021/03/07 10:02:55;;;;;;;0.50;0.50;;;5.50;99.90;;;;;;5056098;28;20595;-76
2021/03/07 10:05:21;;;;;;;0.60;0.60;;;5.60;99.90;;;;;;5055947;28;20156;-77
2021/03/07 10:07:47;;;;;;;0.82;0.82;;;5.90;99.90;;;;;;5037261;28;20195;-76
2021/03/07 10:10:24;;;;;;;4.80;1.60;;;6.00;99.90;;;;;;5055699;28;20668;-75
2021/03/07 10:12:57;;;;;;;1.70;1.55;;;5.90;99.90;;;;;;5055515;28;20268;-76
2021/03/07 10:15:27;;;;;;;3.92;1.83;;;5.80;99.90;;;;;;5073534;28;20353;-75
2021/03/07 10:17:54;;;;;;;0.73;0.73;;;5.80;99.90;;;;;;5065757;28;20564;-75
2021/03/07 10:20:21;;;;;;;0.38;0.38;;;5.80;99.90;;;;;;5054105;28;20341;-74
2021/03/07 10:22:48;;;;;;;0.30;0.30;;;5.70;99.90;;;;;;5054542;28;20561;-75
2021/03/07 10:25:30;;;;;;;1.52;1.00;;;5.70;99.90;;;;;;5054102;28;20163;-74
2021/03/07 10:28:01;;;;;;;0.73;0.73;;;5.80;99.90;;;;;;5054256;28;20202;-75
2021/03/07 10:30:28;;;;;;;0.63;0.63;;;5.80;99.90;;;;;;5054631;28;20175;-75
2021/03/07 10:33:10;;;;;;;1.48;1.38;;;6.00;99.90;;;;;;5037890;28;20515;-77
2021/03/07 10:35:37;;;;;;;0.88;0.88;;;5.90;99.90;;;;;;5055183;28;20551;-76
2021/03/07 10:38:02;;;;;;;0.80;0.80;;;5.90;99.90;;;;;;5057974;28;20528;-77
2021/03/07 10:40:36;;;;;;;1.38;1.33;;;5.90;99.90;;;;;;5037429;28;20700;-83
2021/03/07 10:43:03;;;;;;;0.20;0.20;;;6.00;99.90;;;;;;5055391;28;20147;-76
2021/03/07 10:45:30;;;;;;;0.40;0.40;;;6.20;99.90;;;;;;5037323;28;20178;-75
2021/03/07 10:48:07;;;;;;;0.88;0.88;;;6.20;99.90;;;;;;5055184;28;20188;-75
2021/03/07 10:50:40;;;;;;;0.50;0.50;;;6.40;99.90;;;;;;5037250;28;20536;-75
2021/03/07 10:53:05;;;;;;;1.67;1.42;;;6.80;99.90;;;;;;5055189;28;20164;-75
2021/03/07 10:55:31;;;;;;;10.23;2.53;;;7.20;99.90;;;;;;5055288;28;20230;-76
2021/03/07 10:57:56;;;;;;;1.35;1.27;;;7.00;99.90;;;;;;5054862;28;20215;-76
2021/03/07 11:00:23;;;;;;;0.80;0.77;;;6.80;99.90;;;;;;5054798;28;20290;-77
2021/03/07 11:02:49;;;;;;;0.47;0.47;;;6.80;99.90;;;;;;5055391;28;20166;-77
2021/03/07 11:05:16;;;;;;;3.70;0.88;;;7.00;99.90;;;;;;5054584;28;20160;-74
2021/03/07 11:07:43;;;;;;;0.93;0.90;;;6.90;99.90;;;;;;5055070;28;20202;-77
2021/03/07 11:10:12;;;;;;;0.70;0.70;;;7.10;99.90;;;;;;5055376;28;20571;-78
2021/03/07 11:12:38;;;;;;;0.93;0.93;;;7.20;99.90;;;;;;5054996;28;20553;-75
2021/03/07 11:15:06;;;;;;;0.63;0.63;;;7.20;99.90;;;;;;5054612;28;20506;-74
2021/03/07 11:17:31;;;;;;;0.38;0.38;;;7.40;99.90;;;;;;5054373;28;20581;-75
2021/03/07 11:19:58;;;;;;;3.15;2.45;;;7.40;99.90;;;;;;5054290;28;20242;-75
2021/03/07 11:22:24;;;;;;;0.45;0.38;;;7.30;99.90;;;;;;5054615;28;20485;-74
2021/03/07 11:24:50;;;;;;;3.45;1.42;;;7.40;99.90;;;;;;5054528;28;20500;-75
2021/03/07 11:27:16;;;;;;;0.63;0.63;;;7.40;99.90;;;;;;5054440;28;20506;-75
2021/03/07 11:29:42;;;;;;;0.50;0.50;;;7.40;99.90;;;;;;5054384;28;20269;-76
2021/03/07 11:32:09;;;;;;;0.68;0.68;;;7.20;99.90;;;;;;5054558;28;20159;-76
2021/03/07 11:34:35;;;;;;;6.03;2.95;;;7.10;99.90;;;;;;5054408;28;20485;-76
2021/03/07 11:37:01;;;;;;;0.82;0.82;;;7.10;99.90;;;;;;5054592;28;20719;-75
2021/03/07 11:39:27;;;;;;;0.85;0.85;;;7.40;99.90;;;;;;5037161;28;20546;-75
2021/03/07 11:41:53;;;;;;;0.40;0.40;;;7.70;99.90;;;;;;5060652;28;20202;-77
2021/03/07 11:44:19;;;;;;;1.35;1.25;;;7.70;99.90;;;;;;5042195;28;20646;-75
2021/03/07 11:46:46;;;;;;;2.45;1.55;;;7.90;99.90;;;;;;5057733;28;20195;-76
2021/03/07 11:49:11;;;;;;;0.65;0.65;;;7.90;99.90;;;;;;5056064;28;20165;-76
2021/03/07 11:51:37;;;;;;;0.60;0.60;;;7.50;99.90;;;;;;5054329;28;20163;-76
2021/03/07 11:54:04;;;;;;;1.13;1.13;;;7.10;99.90;;;;;;5054196;28;20159;-75
2021/03/07 11:56:31;;;;;;;4.72;1.33;;;7.20;99.90;;;;;;5054314;28;20505;-75
2021/03/07 11:58:57;;;;;;;0.60;0.60;;;7.10;99.90;;;;;;5053976;28;20608;-76
2021/03/07 12:01:24;;;;;;;0.98;0.98;;;7.10;99.90;;;;;;5054127;28;20560;-76
2021/03/07 12:03:50;;;;;;;0.65;0.65;;;7.20;99.90;;;;;;5054270;28;20164;-76
2021/03/07 12:06:15;;;;;;;0.73;0.73;;;7.20;99.90;;;;;;5053724;28;20233;-76
2021/03/07 12:08:41;;;;;;;0.30;0.30;;;7.10;99.90;;;;;;5053850;28;20277;-76
2021/03/07 12:11:07;;;;;;;1.23;1.23;;;7.10;99.90;;;;;;5054055;28;20170;-77
2021/03/07 12:13:33;;;;;;;0.38;0.38;;;6.90;99.90;;;;;;5053602;28;20167;-76
2021/03/07 12:15:59;;;;;;;1.20;1.20;;;7.00;99.90;;;;;;5053720;28;20163;-76
2021/03/07 12:18:25;;;;;;;0.47;0.47;;;7.20;99.90;;;;;;5053707;28;20186;-76
2021/03/07 12:20:50;;;;;;;0.93;0.93;;;7.20;99.90;;;;;;5054749;28;20203;-74
2021/03/07 12:23:16;;;;;;;0.63;0.57;;;7.40;99.90;;;;;;5053572;28;20160;-75
2021/03/07 12:25:42;;;;;;;0.38;0.38;;;7.30;99.90;;;;;;5053560;28;20171;-75
2021/03/07 12:28:08;;;;;;;0.50;0.50;;;7.50;99.90;;;;;;5053322;28;20278;-76
2021/03/07 12:30:35;;;;;;;9.55;3.03;;;7.70;99.90;;;;;;5053308;28;20164;-76
2021/03/07 12:33:00;;;;;;;2.47;1.08;;;8.00;99.90;;;;;;5053349;28;20489;-76
2021/03/07 12:35:26;;;;;;;0.85;0.73;;;7.90;99.90;;;;;;5053286;28;20147;-76
2021/03/07 12:37:52;;;;;;;0.30;0.30;;;8.20;99.90;;;;;;5053019;28;20214;-75
2021/03/07 12:40:18;;;;;;;0.50;0.50;;;8.20;99.90;;;;;;5053409;28;20203;-76
2021/03/07 12:42:44;;;;;;;0.50;0.50;;;8.10;99.90;;;;;;5035651;28;20583;-74
2021/03/07 12:45:10;;;;;;;1.05;0.88;;;8.30;99.90;;;;;;5053163;28;20167;-74
2021/03/07 12:47:36;;;;;;;0.55;0.55;;;8.10;99.90;;;;;;5053166;28;20506;-75
2021/03/07 12:50:05;;;;;;;0.22;0.22;;;7.80;99.90;;;;;;5053105;28;20178;-75
2021/03/07 12:52:30;;;;;;;0.63;0.63;;;7.50;99.90;;;;;;5053151;28;20200;-75
2021/03/07 12:54:56;;;;;;;0.40;0.40;;;7.30;99.90;;;;;;5053031;28;20246;-74
2021/03/07 12:57:22;;;;;;;0.57;0.57;;;7.30;99.90;;;;;;5052543;28;20175;-75
2021/03/07 12:59:48;;;;;;;1.45;1.30;;;7.50;99.90;;;;;;5052748;28;20191;-74
2021/03/07 13:02:14;;;;;;;0.55;0.55;;;7.80;99.90;;;;;;5053323;28;20151;-75
2021/03/07 13:04:39;;;;;;;0.50;0.50;;;8.20;99.90;;;;;;5052976;28;20179;-74